Time;durP1;ratioP1;P1;durP2;ratioP2;P2;SDS_P1;SDS_P2;PMS_P1;PMS_P2;Temp;Humidity;BMP_temperature;BMP_pressure;BME280_temperature;BME280_humidity;BME280_pressure;Samples;Min_cycle;Max_cycle;Signal;HPM_P1;HPM_P2
2022/11/12 00:01:16;;;;;;;1.53;1.53;;;;;;;8.47;90.96;96982.19;4380286;32;20204;-62
2022/11/12 00:03:43;;;;;;;1.90;1.70;;;;;;;8.40;91.25;96981.53;4366388;32;20448;-62
2022/11/12 00:06:09;;;;;;;1.70;1.60;;;;;;;8.32;91.32;96971.31;4364935;32;20358;-62
2022/11/12 00:08:35;;;;;;;2.20;2.10;;;;;;;8.34;91.62;96974.53;4373670;32;20376;-62
2022/11/12 00:11:03;;;;;;;2.03;1.93;;;;;;;8.28;91.34;96981.56;4352727;32;20273;-62
2022/11/12 00:13:30;;;;;;;1.53;1.47;;;;;;;8.28;91.08;96977.09;4353348;32;20211;-62
2022/11/12 00:15:55;;;;;;;1.63;1.57;;;;;;;8.39;90.59;96972.81;4362592;32;20272;-62
2022/11/12 00:18:21;;;;;;;1.17;1.17;;;;;;;8.31;90.64;96970.53;4355031;32;20284;-62
2022/11/12 00:20:46;;;;;;;1.33;1.33;;;;;;;8.27;90.90;96978.13;4373907;32;20253;-62
2022/11/12 00:23:12;;;;;;;1.67;1.60;;;;;;;8.32;90.70;96973.94;4369119;32;20280;-62
2022/11/12 00:25:38;;;;;;;1.27;1.27;;;;;;;8.39;89.88;96975.44;4356066;32;20185;-62
2022/11/12 00:28:08;;;;;;;1.87;1.80;;;;;;;8.37;89.62;96979.38;4356187;32;20200;-62
2022/11/12 00:30:37;;;;;;;2.07;2.00;;;;;;;8.34;89.53;96974.53;4374772;32;20272;-62
2022/11/12 00:33:05;;;;;;;1.73;1.67;;;;;;;8.22;89.72;96974.59;4379201;32;20268;-62
2022/11/12 00:35:34;;;;;;;2.20;2.10;;;;;;;8.04;90.48;96967.66;4367936;32;20264;-62
2022/11/12 00:38:00;;;;;;;1.47;1.47;;;;;;;8.23;89.98;96969.06;4353914;32;20367;-62
2022/11/12 00:40:26;;;;;;;1.53;1.53;;;;;;;8.24;89.82;96975.16;4375176;32;20269;-62
2022/11/12 00:42:52;;;;;;;1.73;1.63;;;;;;;8.18;89.79;96974.25;4366440;32;20368;-62
2022/11/12 00:45:19;;;;;;;2.20;2.10;;;;;;;7.96;90.59;96968.00;4381183;32;20267;-62
2022/11/12 00:47:45;;;;;;;1.57;1.47;;;;;;;7.97;90.52;96972.25;4350167;32;20195;-62
2022/11/12 00:50:11;;;;;;;2.47;2.30;;;;;;;7.99;90.31;96966.75;4347692;32;20300;-62
2022/11/12 00:52:37;;;;;;;1.80;1.73;;;;;;;8.15;89.36;96971.28;4373850;32;20188;-62
2022/11/12 00:55:04;;;;;;;2.30;2.20;;;;;;;8.23;88.86;96978.84;4374634;32;20295;-62
2022/11/12 00:57:29;;;;;;;2.13;2.03;;;;;;;7.98;89.41;96970.44;4339857;32;20213;-62
2022/11/12 00:59:54;;;;;;;1.87;1.77;;;;;;;7.96;89.29;96975.94;4385069;32;20287;-62
2022/11/12 01:02:22;;;;;;;1.60;1.60;;;;;;;7.70;90.37;96968.56;4373062;32;20203;-62
2022/11/12 01:04:49;;;;;;;1.47;1.47;;;;;;;7.77;90.81;96971.88;4374045;32;20273;-61
2022/11/12 01:07:15;;;;;;;2.43;2.33;;;;;;;7.86;90.82;96973.13;4350058;32;20321;-62
2022/11/12 01:09:43;;;;;;;2.37;2.27;;;;;;;7.84;90.89;96976.00;4371794;32;20265;-62
2022/11/12 01:12:09;;;;;;;1.77;1.77;;;;;;;7.65;91.94;96966.63;4353235;32;20311;-62
2022/11/12 01:14:36;;;;;;;4.03;3.73;;;;;;;7.91;91.24;96966.06;4362654;32;20334;-62
2022/11/12 01:17:01;;;;;;;2.30;2.20;;;;;;;8.00;91.03;96958.59;4362033;32;20286;-63
2022/11/12 01:19:28;;;;;;;2.13;2.03;;;;;;;7.96;91.52;96962.72;4383985;32;20284;-62
2022/11/12 01:21:54;;;;;;;2.20;2.10;;;;;;;7.98;91.16;96963.31;4377741;32;20203;-62
2022/11/12 01:24:20;;;;;;;2.20;2.10;;;;;;;7.78;91.18;96949.72;4378530;32;20352;-62
2022/11/12 01:26:46;;;;;;;2.57;2.47;;;;;;;7.80;91.55;96951.09;4338388;32;20282;-62
2022/11/12 01:29:12;;;;;;;2.50;2.33;;;;;;;7.77;91.63;96953.38;4359765;32;20189;-62
2022/11/12 01:31:38;;;;;;;2.30;2.20;;;;;;;8.07;90.78;96951.34;4370617;32;20307;-62
2022/11/12 01:34:06;;;;;;;2.27;2.17;;;;;;;8.06;90.71;96949.72;4373567;32;20185;-62
2022/11/12 01:36:36;;;;;;;3.30;3.10;;;;;;;7.94;91.26;96943.66;4354352;32;20360;-62
2022/11/12 01:39:04;;;;;;;3.20;2.93;;;;;;;8.00;91.31;96945.37;4374723;32;20280;-62
2022/11/12 01:41:33;;;;;;;3.33;3.13;;;;;;;8.10;90.27;96939.47;4356884;32;20328;-62
2022/11/12 01:44:19;;;;;;;1.97;1.87;;;;;;;8.23;89.82;96947.91;4360542;32;20285;-62
2022/11/12 01:47:19;;;;;;;2.30;2.20;;;;;;;8.08;90.15;96939.72;4386122;32;20293;-62
2022/11/12 01:50:13;;;;;;;1.93;1.83;;;;;;;8.26;89.47;96947.44;4355522;32;20281;-62
2022/11/12 01:52:45;;;;;;;2.03;1.97;;;;;;;8.18;89.61;96939.88;4367757;32;20277;-62
2022/11/12 01:55:19;;;;;;;1.53;1.53;;;;;;;8.29;89.10;96946.16;4357553;32;20286;-62
2022/11/12 01:57:54;;;;;;;1.30;1.30;;;;;;;8.28;89.29;96940.06;4356885;32;20306;-62
2022/11/12 02:00:20;;;;;;;2.00;1.90;;;;;;;8.33;88.96;96928.00;4371991;32;20288;-62
2022/11/12 02:03:01;;;;;;;2.60;2.43;;;;;;;8.31;89.11;96928.22;4333295;32;20358;-62
2022/11/12 02:05:29;;;;;;;1.97;1.87;;;;;;;8.24;88.96;96928.38;4375011;32;20229;-62
2022/11/12 02:07:59;;;;;;;1.90;1.73;;;;;;;8.26;88.91;96925.50;4373202;32;20324;-62
2022/11/12 02:10:25;;;;;;;2.20;2.07;;;;;;;7.96;89.48;96925.75;4380700;32;20337;-62
2022/11/12 02:15:42;;;;;;;0.97;0.97;;;;;;;7.83;89.23;96915.47;4369334;32;20299;-62
2022/11/12 02:18:08;;;;;;;1.73;1.63;;;;;;;8.11;87.93;96919.91;4372884;32;20281;-62
2022/11/12 02:20:37;;;;;;;1.57;1.47;;;;;;;7.95;87.61;96916.22;4370888;32;20282;-62
2022/11/12 02:23:06;;;;;;;2.03;1.93;;;;;;;7.83;87.92;96915.47;4375473;32;20188;-62
2022/11/12 02:25:32;;;;;;;1.93;1.80;;;;;;;7.72;88.86;96913.66;4373857;32;20326;-62
2022/11/12 02:27:58;;;;;;;1.27;1.27;;;;;;;7.75;89.06;96913.19;4359423;32;20288;-62
2022/11/12 02:30:54;;;;;;;2.33;2.03;;;;;;;7.76;88.43;96914.78;4359248;32;20193;-62
2022/11/12 02:33:19;;;;;;;4.07;3.20;;;;;;;7.77;88.93;96917.19;4376443;32;20347;-62
2022/11/12 02:35:46;;;;;;;2.33;2.20;;;;;;;7.85;88.70;96908.09;4390253;32;20276;-62
2022/11/12 02:38:13;;;;;;;1.87;1.77;;;;;;;7.81;88.50;96905.13;4375372;32;20177;-62
2022/11/12 02:40:41;;;;;;;1.47;1.43;;;;;;;7.50;89.80;96909.00;4377317;32;20284;-62
2022/11/12 02:43:07;;;;;;;1.97;1.87;;;;;;;7.81;88.91;96912.25;4364355;32;20294;-61
2022/11/12 02:45:34;;;;;;;2.13;2.03;;;;;;;7.57;89.55;96901.78;4352751;32;20341;-62
2022/11/12 02:48:05;;;;;;;2.90;2.60;;;;;;;7.50;90.26;96910.84;4364506;32;20275;-62
2022/11/12 02:50:30;;;;;;;1.70;1.60;;;;;;;7.70;89.77;96905.16;4380924;32;20281;-63
2022/11/12 02:52:55;;;;;;;2.53;2.43;;;;;;;7.70;89.56;96905.16;4372004;32;20318;-62
2022/11/12 02:55:21;;;;;;;1.70;1.60;;;;;;;7.72;89.22;96905.72;4361752;32;20247;-62
2022/11/12 02:57:47;;;;;;;1.33;1.33;;;;;;;7.77;88.86;96905.84;4372816;32;20192;-62
2022/11/12 03:00:13;;;;;;;1.40;1.40;;;;;;;7.61;89.62;96904.75;4380778;32;20325;-62
2022/11/12 03:02:41;;;;;;;1.90;1.43;;;;;;;7.59;89.73;96901.53;4348559;32;20284;-62
2022/11/12 03:05:10;;;;;;;1.80;1.70;;;;;;;7.65;89.43;96902.44;4351826;32;20210;-62
2022/11/12 03:07:38;;;;;;;2.23;2.13;;;;;;;7.38;90.59;96908.25;4372153;32;20353;-62
2022/11/12 03:10:04;;;;;;;2.07;1.97;;;;;;;7.50;90.37;96906.37;4365921;32;20272;-62
2022/11/12 03:12:31;;;;;;;2.53;2.43;;;;;;;7.43;91.16;96911.00;4380469;32;20288;-62
2022/11/12 03:14:57;;;;;;;2.00;1.80;;;;;;;7.33;91.69;96905.50;4377618;32;20291;-62
2022/11/12 03:17:22;;;;;;;1.87;1.77;;;;;;;7.61;91.40;96911.88;4385727;32;20326;-64
2022/11/12 03:19:48;;;;;;;2.50;2.10;;;;;;;7.73;90.41;96913.41;4385351;32;20284;-62
2022/11/12 03:22:15;;;;;;;2.57;2.47;;;;;;;7.44;90.79;96920.53;4367706;32;20207;-62
2022/11/12 03:24:43;;;;;;;1.37;1.37;;;;;;;7.41;91.61;96912.28;4336021;32;20240;-62
2022/11/12 03:27:08;;;;;;;1.80;1.70;;;;;;;7.44;90.99;96920.53;4356671;32;20281;-62
2022/11/12 03:29:33;;;;;;;2.17;1.93;;;;;;;7.28;91.63;96918.59;4380722;32;20310;-62
2022/11/12 03:32:00;;;;;;;5.53;1.80;;;;;;;7.33;91.14;96923.97;4371574;32;20200;-62
2022/11/12 03:34:25;;;;;;;2.27;2.10;;;;;;;7.51;90.18;96930.94;4352668;32;20181;-62
2022/11/12 03:36:50;;;;;;;1.10;1.03;;;;;;;7.32;90.51;96929.50;4382195;32;20310;-62
2022/11/12 03:39:16;;;;;;;1.50;1.50;;;;;;;7.37;90.83;96933.06;4352220;32;20211;-62
2022/11/12 03:41:44;;;;;;;1.03;1.03;;;;;;;7.39;90.19;96923.06;4332754;32;20199;-62
2022/11/12 03:44:11;;;;;;;1.70;1.60;;;;;;;7.14;90.94;96933.09;4335803;32;20185;-62
2022/11/12 03:46:38;;;;;;;1.53;1.33;;;;;;;6.92;91.98;96934.69;4373009;32;20318;-62
2022/11/12 03:49:03;;;;;;;1.57;1.50;;;;;;;6.82;91.98;96941.38;4382322;32;20276;-61
2022/11/12 03:51:28;;;;;;;2.03;1.93;;;;;;;6.86;92.12;96929.31;4376379;32;20189;-62
2022/11/12 03:53:53;;;;;;;0.80;0.80;;;;;;;7.01;91.29;96928.06;4371180;32;20199;-62
2022/11/12 03:56:20;;;;;;;1.33;1.33;;;;;;;7.23;89.72;96929.06;4357355;32;20226;-61
2022/11/12 03:58:48;;;;;;;1.37;1.27;;;;;;;7.02;89.83;96925.19;4363676;32;20201;-62
2022/11/12 04:01:13;;;;;;;1.10;1.10;;;;;;;7.11;89.72;96929.06;4374747;32;20371;-62
2022/11/12 04:03:39;;;;;;;1.10;1.10;;;;;;;6.76;91.12;96931.72;4348624;32;20297;-62
2022/11/12 04:08:53;;;;;;;2.03;1.93;;;;;;;6.92;90.63;96942.59;4374827;32;20294;-62
2022/11/12 04:11:19;;;;;;;2.33;2.23;;;;;;;6.91;90.34;96941.81;4371662;32;20268;-62
2022/11/12 04:13:46;;;;;;;2.60;2.50;;;;;;;7.08;89.74;96934.00;4359594;32;20272;-62
2022/11/12 04:21:56;;;;;;;2.20;2.03;;;;;;;6.58;90.34;96936.28;4356254;32;20323;-62
2022/11/12 04:27:32;;;;;;;5.27;3.50;;;;;;;6.41;90.25;96930.88;4336558;32;20363;-62
2022/11/12 04:30:17;;;;;;;3.13;2.83;;;;;;;6.41;90.74;96933.53;4376850;32;20295;-62
2022/11/12 04:32:53;;;;;;;3.60;3.40;;;;;;;6.42;90.10;96930.66;4363121;32;20391;-62
2022/11/12 04:35:21;;;;;;;5.93;2.50;;;;;;;6.08;91.73;96929.53;4351481;32;20275;-62
2022/11/12 04:37:47;;;;;;;3.10;2.90;;;;;;;6.24;90.96;96929.91;4370380;32;20273;-62
2022/11/12 04:45:54;;;;;;;2.40;2.23;;;;;;;6.37;90.09;96938.44;4343098;32;20310;-62
2022/11/12 04:48:26;;;;;;;1.97;1.90;;;;;;;6.27;90.59;96937.37;4372290;32;20296;-61
2022/11/12 04:51:02;;;;;;;3.13;2.87;;;;;;;6.10;91.54;96937.22;4380357;32;20184;-62
2022/11/12 04:53:30;;;;;;;2.73;2.63;;;;;;;6.21;91.28;96936.47;4380123;32;20272;-62
2022/11/12 04:55:59;;;;;;;2.90;2.53;;;;;;;6.01;91.99;96941.22;4365918;32;20320;-62
2022/11/12 04:58:24;;;;;;;2.53;1.77;;;;;;;6.00;92.33;96937.78;4357243;32;20298;-62
2022/11/12 05:00:50;;;;;;;2.43;2.33;;;;;;;5.83;92.54;96931.47;4377080;32;20304;-63
2022/11/12 05:03:17;;;;;;;2.20;2.10;;;;;;;6.05;92.26;96935.25;4350842;32;20188;-62
2022/11/12 05:05:43;;;;;;;2.43;1.77;;;;;;;5.76;92.94;96942.09;4370836;32;20177;-61
2022/11/12 05:08:10;;;;;;;2.50;2.40;;;;;;;5.87;92.96;96935.28;4384509;32;20285;-62
2022/11/12 05:10:38;;;;;;;2.80;2.70;;;;;;;6.01;92.02;96934.12;4356426;32;20331;-61
2022/11/12 05:13:03;;;;;;;2.50;2.40;;;;;;;5.75;93.11;96939.69;4352083;32;20288;-62
2022/11/12 05:15:29;;;;;;;2.43;2.33;;;;;;;5.77;92.84;96942.91;4366520;32;20318;-62
2022/11/12 05:17:56;;;;;;;2.60;2.50;;;;;;;5.66;94.02;96946.28;4339561;32;20185;-62
2022/11/12 05:20:25;;;;;;;4.30;3.10;;;;;;;5.70;93.71;96947.44;4359281;32;20248;-61
2022/11/12 05:22:52;;;;;;;3.17;2.90;;;;;;;5.56;94.48;96946.00;4337604;32;20303;-62
2022/11/12 05:25:18;;;;;;;2.87;2.77;;;;;;;5.53;94.38;96948.06;4376205;32;20272;-61
2022/11/12 05:27:43;;;;;;;3.17;2.87;;;;;;;5.52;94.74;96951.72;4359093;32;20307;-62
2022/11/12 05:30:09;;;;;;;2.00;1.77;;;;;;;5.46;95.25;96939.44;4369283;32;20310;-62
2022/11/12 05:32:36;;;;;;;2.40;1.90;;;;;;;5.72;94.38;96943.56;4350103;32;20252;-62
2022/11/12 05:35:02;;;;;;;2.63;2.47;;;;;;;5.53;94.24;96937.53;4371689;32;20181;-61
2022/11/12 05:37:28;;;;;;;2.13;2.00;;;;;;;5.49;95.14;96946.88;4368804;32;20295;-62
2022/11/12 05:39:54;;;;;;;3.00;2.63;;;;;;;5.38;95.46;96938.94;4336640;32;20281;-62
2022/11/12 05:42:20;;;;;;;2.37;2.17;;;;;;;5.38;95.52;96945.00;4359246;32;20254;-61
2022/11/12 05:44:47;;;;;;;2.50;2.40;;;;;;;5.48;94.41;96942.66;4339526;32;20272;-62
2022/11/12 05:47:13;;;;;;;3.13;2.83;;;;;;;5.26;94.97;96944.13;4367430;32;20316;-62
2022/11/12 05:49:38;;;;;;;2.10;2.00;;;;;;;5.17;95.55;96958.59;4365992;32;20295;-62
2022/11/12 05:52:05;;;;;;;2.20;2.10;;;;;;;5.38;95.30;96952.91;4381345;32;20283;-61
2022/11/12 05:54:32;;;;;;;3.57;2.73;;;;;;;5.48;95.00;96950.53;4376626;32;20201;-62
2022/11/12 05:56:57;;;;;;;2.97;2.87;;;;;;;5.38;95.21;96958.16;4367889;32;20322;-62
2022/11/12 05:59:23;;;;;;;2.77;2.57;;;;;;;5.41;94.99;96957.69;4373278;32;20276;-62
2022/11/12 06:01:52;;;;;;;2.33;2.23;;;;;;;5.40;95.21;96958.72;4375552;32;20189;-62
2022/11/12 06:04:17;;;;;;;1.60;1.60;;;;;;;5.51;94.73;96957.19;4362113;32;20268;-62
2022/11/12 06:06:45;;;;;;;2.27;1.73;;;;;;;5.39;94.34;96966.87;4376696;32;20359;-61
2022/11/12 06:09:10;;;;;;;1.77;1.67;;;;;;;5.44;94.52;96965.16;4364570;32;20310;-62
2022/11/12 06:11:36;;;;;;;2.43;2.33;;;;;;;5.46;94.69;96971.00;4379880;32;20299;-62
2022/11/12 06:14:03;;;;;;;2.20;2.10;;;;;;;5.15;95.35;96979.84;4386910;32;20202;-62
2022/11/12 06:16:31;;;;;;;2.37;2.27;;;;;;;5.21;96.04;96978.16;4363349;32;20196;-62
2022/11/12 06:18:57;;;;;;;1.93;1.90;;;;;;;5.53;94.46;96979.66;4370363;32;20314;-62
2022/11/12 06:21:23;;;;;;;1.70;1.60;;;;;;;5.24;94.52;96980.34;4373339;32;20277;-64
2022/11/12 06:23:52;;;;;;;2.87;1.87;;;;;;;5.11;95.41;96986.56;4357473;32;20319;-62
2022/11/12 06:26:19;;;;;;;2.10;2.07;;;;;;;5.19;95.33;96977.59;4379004;32;20328;-62
2022/11/12 06:28:45;;;;;;;2.33;2.23;;;;;;;5.30;94.09;96984.75;4349495;32;20292;-62
2022/11/12 06:31:13;;;;;;;2.03;1.93;;;;;;;5.11;95.10;96977.88;4354974;32;20284;-62
2022/11/12 06:33:38;;;;;;;2.13;2.03;;;;;;;5.09;95.79;96974.66;4373584;32;20307;-62
2022/11/12 06:36:06;;;;;;;1.47;1.47;;;;;;;5.04;96.12;96974.50;4372603;32;20284;-62
2022/11/12 06:38:34;;;;;;;2.30;2.20;;;;;;;4.97;96.57;96979.84;4389919;32;20199;-62
2022/11/12 06:41:00;;;;;;;1.93;1.93;;;;;;;5.05;96.69;96979.53;4385893;32;20272;-62
2022/11/12 06:43:28;;;;;;;1.63;1.63;;;;;;;5.22;95.82;96974.50;4387681;32;20380;-62
2022/11/12 06:45:57;;;;;;;1.80;1.77;;;;;;;4.99;95.96;96979.62;4356806;32;20339;-62
2022/11/12 06:48:24;;;;;;;1.73;1.70;;;;;;;5.16;96.50;96978.03;4366460;32;20291;-64
2022/11/12 06:50:50;;;;;;;2.30;1.90;;;;;;;5.15;96.17;96974.59;4367822;32;20298;-62
2022/11/12 06:53:15;;;;;;;1.37;1.37;;;;;;;5.12;96.11;96987.38;4370201;32;20383;-62
2022/11/12 06:55:42;;;;;;;2.13;2.07;;;;;;;5.15;96.34;96979.03;4354784;32;20284;-62
2022/11/12 06:58:09;;;;;;;3.17;2.47;;;;;;;5.00;96.64;96978.56;4378631;32;20209;-62
2022/11/12 07:00:34;;;;;;;2.43;2.33;;;;;;;5.20;96.83;96971.28;4358006;32;20360;-62
2022/11/12 07:03:05;;;;;;;3.80;3.20;;;;;;;5.40;95.34;96977.13;4374824;32;20276;-62
2022/11/12 07:05:31;;;;;;;1.63;1.53;;;;;;;5.67;94.64;96977.66;4358771;32;20226;-62
2022/11/12 07:07:57;;;;;;;2.80;2.60;;;;;;;5.34;95.04;96977.22;4385522;32;20280;-62
2022/11/12 07:10:24;;;;;;;2.63;2.50;;;;;;;5.31;95.70;96978.47;4352545;32;20234;-64
2022/11/12 07:12:52;;;;;;;2.13;2.03;;;;;;;5.43;95.33;96984.59;4382448;32;20277;-62
2022/11/12 07:15:19;;;;;;;1.23;1.23;;;;;;;5.33;95.20;96988.78;4382037;32;20410;-62
2022/11/12 07:17:47;;;;;;;1.33;1.33;;;;;;;5.10;96.20;96989.41;4380723;32;20265;-62
2022/11/12 07:20:12;;;;;;;1.33;1.33;;;;;;;5.28;96.18;96986.78;4368609;32;20277;-62
2022/11/12 07:22:37;;;;;;;1.70;1.70;;;;;;;5.17;97.17;96996.22;4358807;32;20360;-62
2022/11/12 07:25:05;;;;;;;2.53;2.33;;;;;;;5.13;97.05;96995.03;4339156;32;20261;-62
2022/11/12 07:27:30;;;;;;;1.13;1.13;;;;;;;5.04;97.51;96990.28;4345841;32;20197;-62
2022/11/12 07:29:56;;;;;;;1.20;1.20;;;;;;;5.26;97.35;96988.84;4362083;32;20375;-62
2022/11/12 07:32:24;;;;;;;1.93;1.87;;;;;;;5.30;97.08;96978.69;4382020;32;20196;-62
2022/11/12 07:34:49;;;;;;;1.47;1.47;;;;;;;5.43;95.98;96983.78;4347141;32;20204;-62
2022/11/12 07:37:16;;;;;;;1.57;1.47;;;;;;;5.42;95.81;96983.00;4344463;32;20282;-61
2022/11/12 07:39:41;;;;;;;1.20;1.20;;;;;;;5.36;96.35;96981.25;4373900;32;20184;-62
2022/11/12 07:42:08;;;;;;;1.10;1.10;;;;;;;5.44;96.14;96985.41;4380652;32;20311;-62
2022/11/12 07:44:35;;;;;;;0.90;0.90;;;;;;;5.64;95.54;96986.00;4368135;32;20180;-62
2022/11/12 07:47:01;;;;;;;0.97;0.97;;;;;;;5.72;95.08;96982.25;4373324;32;20384;-62
2022/11/12 07:49:28;;;;;;;1.10;1.10;;;;;;;5.51;95.87;96979.06;4370370;32;20281;-62
2022/11/12 07:51:56;;;;;;;0.67;0.67;;;;;;;5.46;96.24;96981.53;4357958;32;20188;-61
2022/11/12 07:54:22;;;;;;;0.70;0.70;;;;;;;5.52;96.10;96971.97;4368904;32;20273;-62
2022/11/12 07:56:48;;;;;;;1.50;1.40;;;;;;;5.69;95.81;96978.25;4378278;32;20329;-62
2022/11/12 07:59:15;;;;;;;1.63;1.17;;;;;;;5.64;95.65;96974.66;4388567;32;20279;-61
2022/11/12 08:01:41;;;;;;;0.87;0.87;;;;;;;5.63;95.50;96980.94;4371401;32;20287;-61
2022/11/12 08:04:10;;;;;;;0.90;0.90;;;;;;;5.45;96.07;96977.28;4369832;32;20343;-62
2022/11/12 08:06:36;;;;;;;1.10;1.10;;;;;;;5.51;95.82;96976.44;4363016;32;20335;-61
2022/11/12 08:09:04;;;;;;;1.00;1.00;;;;;;;5.69;95.36;96982.69;4374511;32;20340;-62
2022/11/12 08:11:31;;;;;;;0.90;0.90;;;;;;;5.60;95.95;96979.56;4352988;32;20193;-62
2022/11/12 08:13:57;;;;;;;1.60;1.60;;;;;;;5.52;96.12;96975.41;4344150;32;20308;-62
2022/11/12 08:16:23;;;;;;;0.77;0.77;;;;;;;5.56;96.09;96982.87;4379932;32;20268;-64
2022/11/12 08:18:49;;;;;;;1.27;1.17;;;;;;;5.61;96.11;96983.00;4369864;32;20315;-62
2022/11/12 08:21:16;;;;;;;1.03;1.03;;;;;;;5.75;95.29;96987.91;4383941;32;20215;-62
2022/11/12 08:23:41;;;;;;;0.90;0.90;;;;;;;5.76;95.48;96994.78;4387846;32;20192;-62
2022/11/12 08:26:13;;;;;;;0.80;0.63;;;;;;;5.73;95.57;96991.78;4380709;32;20285;-62
2022/11/12 08:28:40;;;;;;;0.77;0.77;;;;;;;5.77;96.02;96988.47;4362683;32;20230;-62
2022/11/12 08:31:13;;;;;;;0.67;0.67;;;;;;;5.93;95.94;96988.91;4359392;32;20369;-62
2022/11/12 08:33:39;;;;;;;1.33;1.33;;;;;;;5.91;95.92;96989.13;4358318;32;20284;-62
2022/11/12 08:36:16;;;;;;;2.10;2.00;;;;;;;5.94;95.01;96993.97;4368690;32;20295;-62
2022/11/12 08:38:45;;;;;;;0.93;0.93;;;;;;;5.90;94.74;96995.44;4348200;32;20187;-62
2022/11/12 08:41:13;;;;;;;1.00;1.00;;;;;;;5.92;95.84;97003.13;4370803;32;20366;-62
2022/11/12 08:43:42;;;;;;;0.80;0.80;;;;;;;6.03;95.40;97004.97;4359596;32;20310;-62
2022/11/12 08:46:09;;;;;;;0.80;0.80;;;;;;;6.07;95.05;97006.16;4374098;32;20287;-62
2022/11/12 08:48:38;;;;;;;1.00;1.00;;;;;;;5.99;94.99;96998.56;4353634;32;20273;-62
2022/11/12 08:51:06;;;;;;;1.77;1.67;;;;;;;6.04;95.31;97002.12;4357653;32;20277;-62
2022/11/12 08:53:32;;;;;;;0.83;0.83;;;;;;;6.21;95.03;96997.06;4366640;32;20281;-62
2022/11/12 08:55:58;;;;;;;2.57;1.20;;;;;;;6.25;94.93;96997.41;4378787;32;20344;-62
2022/11/12 08:58:25;;;;;;;1.10;1.10;;;;;;;6.20;95.42;96996.25;4368670;32;20197;-62
2022/11/12 09:01:05;;;;;;;0.63;0.63;;;;;;;6.05;95.23;96995.03;4362181;32;20288;-62
2022/11/12 09:03:32;;;;;;;1.37;1.37;;;;;;;6.21;95.59;96981.25;4341199;32;20276;-62
2022/11/12 09:06:02;;;;;;;1.43;1.43;;;;;;;6.16;95.13;96987.19;4384498;32;20280;-62
2022/11/12 09:08:27;;;;;;;0.70;0.70;;;;;;;6.24;94.67;96991.31;4380918;32;20329;-62
2022/11/12 09:10:53;;;;;;;0.60;0.60;;;;;;;6.47;94.14;96991.41;4364079;32;20268;-62
2022/11/12 09:13:19;;;;;;;0.77;0.77;;;;;;;6.42;94.32;96993.94;4368809;32;20230;-64
2022/11/12 09:15:46;;;;;;;1.37;1.27;;;;;;;6.49;94.21;96993.81;4366680;32;20295;-62
2022/11/12 09:18:17;;;;;;;1.30;1.30;;;;;;;6.61;94.01;96994.66;4365148;32;20254;-62
2022/11/12 09:20:44;;;;;;;0.77;0.77;;;;;;;6.61;93.93;96993.84;4357487;32;20273;-62
2022/11/12 09:23:12;;;;;;;1.60;1.50;;;;;;;6.69;93.66;96999.59;4367775;32;20272;-62
2022/11/12 09:25:39;;;;;;;0.47;0.47;;;;;;;6.66;93.61;97002.66;4366343;32;20303;-62
2022/11/12 09:28:26;;;;;;;1.03;0.90;;;;;;;6.93;93.03;96996.97;4370169;32;20288;-62
2022/11/12 09:30:53;;;;;;;0.97;0.97;;;;;;;6.85;92.80;97001.56;4373140;32;20284;-62
2022/11/12 09:33:24;;;;;;;1.03;1.03;;;;;;;7.05;92.29;97000.44;4359138;32;20350;-62
2022/11/12 09:35:50;;;;;;;1.07;1.07;;;;;;;7.14;92.32;97007.78;4344459;32;20288;-62
2022/11/12 09:38:19;;;;;;;1.17;1.17;;;;;;;7.18;92.09;97001.00;4363391;32;20272;-62
2022/11/12 09:41:09;;;;;;;0.80;0.80;;;;;;;7.37;91.47;97012.25;4356635;32;20379;-62
2022/11/12 09:43:44;;;;;;;0.73;0.73;;;;;;;7.42;91.15;97001.81;4372261;32;20287;-62
2022/11/12 09:46:50;;;;;;;0.83;0.83;;;;;;;7.53;91.03;97005.44;4370296;32;20302;-62
2022/11/12 09:49:33;;;;;;;1.50;1.23;;;;;;;7.69;90.15;97001.31;4371197;32;20295;-62
2022/11/12 09:52:09;;;;;;;1.00;1.00;;;;;;;7.69;89.90;96993.38;4360315;32;20288;-61
2022/11/12 09:54:36;;;;;;;1.00;1.00;;;;;;;7.78;90.06;97002.53;4384364;32;20386;-62
2022/11/12 09:57:01;;;;;;;1.07;1.07;;;;;;;7.96;89.65;97001.56;4370930;32;20319;-62
2022/11/12 09:59:38;;;;;;;1.37;1.27;;;;;;;8.03;88.90;96995.12;4377731;32;20296;-62
2022/11/12 10:02:22;;;;;;;0.80;0.80;;;;;;;8.15;88.20;96998.50;4351195;32;20231;-62
2022/11/12 10:05:14;;;;;;;1.37;1.37;;;;;;;8.24;88.25;96996.31;4363891;32;20360;-62
2022/11/12 10:08:02;;;;;;;1.03;1.03;;;;;;;8.41;87.48;96991.88;4336546;32;20269;-62
2022/11/12 10:10:47;;;;;;;1.47;1.43;;;;;;;8.39;87.33;96996.59;4351128;32;20273;-62
2022/11/12 10:13:26;;;;;;;1.67;1.63;;;;;;;8.63;86.25;96988.53;4364913;32;20296;-62
2022/11/12 10:19:03;;;;;;;0.53;0.53;;;;;;;8.61;86.43;96981.66;4372405;32;20346;-61
2022/11/12 10:21:38;;;;;;;1.77;1.67;;;;;;;8.60;86.81;96974.75;4375019;32;20287;-62
2022/11/12 10:24:14;;;;;;;0.87;0.87;;;;;;;8.63;86.79;96986.69;4364479;32;20276;-62
2022/11/12 10:26:42;;;;;;;1.37;1.37;;;;;;;8.76;87.22;96978.44;4352840;32;20217;-62
2022/11/12 10:29:11;;;;;;;0.53;0.53;;;;;;;8.91;85.82;96976.06;4363772;32;20330;-61
2022/11/12 10:31:37;;;;;;;1.13;1.13;;;;;;;8.90;86.06;96969.16;4380656;32;20347;-62
2022/11/12 10:34:20;;;;;;;1.40;1.40;;;;;;;8.98;85.89;96965.28;4365484;32;20355;-62
2022/11/12 10:36:52;;;;;;;1.10;1.10;;;;;;;9.09;85.90;96955.66;4358383;32;20280;-61
2022/11/12 10:39:31;;;;;;;1.97;1.80;;;;;;;9.15;85.28;96954.66;4361930;32;20299;-62
2022/11/12 10:42:21;;;;;;;2.37;2.17;;;;;;;9.33;84.72;96946.47;4360237;32;20328;-62
2022/11/12 10:44:50;;;;;;;2.17;2.07;;;;;;;9.29;85.85;96946.16;4351845;32;20188;-62
2022/11/12 10:47:41;;;;;;;2.47;2.37;;;;;;;9.37;86.13;96944.09;4333997;32;20368;-62
2022/11/12 10:50:23;;;;;;;3.23;2.27;;;;;;;9.42;86.30;96942.34;4357631;32;20308;-62
2022/11/12 10:53:05;;;;;;;2.90;2.70;;;;;;;9.43;86.12;96933.34;4372367;32;20283;-62
2022/11/12 10:55:33;;;;;;;2.43;2.33;;;;;;;9.24;87.16;96943.44;4357997;32;20307;-61
2022/11/12 10:58:12;;;;;;;2.43;2.33;;;;;;;9.25;87.34;96944.22;4346791;32;20291;-61
2022/11/12 11:00:59;;;;;;;2.47;2.37;;;;;;;9.32;87.21;96934.28;4360516;32;20289;-61
2022/11/12 11:03:33;;;;;;;2.13;2.03;;;;;;;9.44;86.96;96929.66;4367169;32;20300;-62
2022/11/12 11:06:06;;;;;;;2.87;2.70;;;;;;;9.53;88.01;96924.75;4361505;32;20294;-62
2022/11/12 11:08:32;;;;;;;2.73;2.63;;;;;;;9.51;87.04;96935.56;4368031;32;20231;-62
2022/11/12 11:11:17;;;;;;;2.87;2.77;;;;;;;9.27;86.91;96936.84;4382345;32;20277;-62
2022/11/12 11:13:45;;;;;;;3.03;2.83;;;;;;;9.42;86.83;96923.78;4388697;32;20221;-62
2022/11/12 11:16:20;;;;;;;3.13;3.03;;;;;;;9.51;86.91;96924.97;4376165;32;20204;-62
2022/11/12 11:18:51;;;;;;;2.47;2.37;;;;;;;9.53;86.25;96917.59;4380776;32;20320;-62
2022/11/12 11:21:41;;;;;;;3.70;3.47;;;;;;;9.58;86.30;96912.34;4380805;32;23256;-62
2022/11/12 11:24:39;;;;;;;4.33;4.03;;;;;;;9.45;86.45;96915.34;4385221;32;20254;-62
2022/11/12 11:27:33;;;;;;;2.67;2.47;;;;;;;9.46;86.77;96911.66;4345686;32;20203;-62
2022/11/12 11:30:20;;;;;;;2.83;2.73;;;;;;;9.46;86.85;96909.03;4354470;32;20212;-62
2022/11/12 11:33:04;;;;;;;7.17;2.97;;;;;;;9.42;86.79;96913.19;4384458;32;20280;-62
2022/11/12 11:36:14;;;;;;;2.67;2.57;;;;;;;9.48;86.92;96904.28;4337867;32;20193;-62
2022/11/12 11:38:53;;;;;;;5.87;3.93;;;;;;;9.48;86.58;96906.13;4357378;32;20323;-62
2022/11/12 11:41:38;;;;;;;3.37;3.17;;;;;;;9.34;87.37;96912.84;4371396;32;20185;-62
2022/11/12 11:44:42;;;;;;;3.20;3.00;;;;;;;9.52;86.67;96897.44;4369061;32;20259;-62
2022/11/12 11:47:41;;;;;;;4.30;3.90;;;;;;;9.42;86.82;96892.00;4363863;32;20251;-62
2022/11/12 11:50:52;;;;;;;3.40;3.20;;;;;;;9.38;86.61;96904.13;4366888;32;20200;-62
2022/11/12 11:53:25;;;;;;;4.17;3.70;;;;;;;9.41;87.24;96895.72;4355846;32;20303;-61
2022/11/12 11:56:02;;;;;;;2.53;2.40;;;;;;;9.45;86.54;96888.88;4373270;32;20277;-62
2022/11/12 11:58:38;;;;;;;2.63;2.53;;;;;;;9.49;87.13;96883.87;4341395;32;20296;-62
2022/11/12 12:01:10;;;;;;;4.97;4.67;;;;;;;9.62;86.66;96884.31;4372687;32;20259;-62
2022/11/12 12:04:00;;;;;;;4.53;3.80;;;;;;;9.36;87.08;96874.44;4375817;32;20184;-62
2022/11/12 12:06:29;;;;;;;3.07;2.93;;;;;;;9.57;86.39;96878.94;4376695;32;20280;-62
2022/11/12 12:09:18;;;;;;;3.03;2.83;;;;;;;9.46;86.65;96887.03;4370917;32;20207;-62
2022/11/12 12:12:00;;;;;;;2.83;2.70;;;;;;;9.51;86.80;96879.94;4353352;32;20185;-62
2022/11/12 12:14:37;;;;;;;3.13;2.93;;;;;;;9.67;86.77;96872.97;4381584;32;20192;-62
2022/11/12 12:17:41;;;;;;;5.33;4.63;;;;;;;9.65;86.58;96867.91;4394586;32;20296;-62
2022/11/12 12:20:34;;;;;;;3.10;3.00;;;;;;;9.45;87.12;96870.34;4354593;32;20192;-62